Time;durP1;ratioP1;P1;durP2;ratioP2;P2;SDS_P1;SDS_P2;PMS_P1;PMS_P2;Temp;Humidity;BMP_temperature;BMP_pressure;BME280_temperature;BME280_humidity;BME280_pressure;Samples;Min_cycle;Max_cycle;Signal;HPM_P1;HPM_P2
2024/01/13 00:00:00;;;;;;;3.55;1.50;;;;;;;;;;2101587;28;20032;-65
2024/01/13 00:01:18;;;;;;;3.30;1.70;;;;;;;;;;2101575;28;20051;-66
2024/01/13 00:02:37;;;;;;;2.00;1.65;;;;;;;;;;2153808;22;20397;-65
2024/01/13 00:03:56;;;;;;;2.80;1.55;;;;;;;;;;2051691;28;20043;-66
2024/01/13 00:05:15;;;;;;;2.63;1.88;;;;;;;;;;2050353;28;20031;-66
2024/01/13 00:06:34;;;;;;;2.13;1.40;;;;;;;;;;2047470;28;20821;-66
2024/01/13 00:07:51;;;;;;;1.65;1.48;;;;;;;;;;2103135;22;20574;-66
2024/01/13 00:09:10;;;;;;;2.38;1.30;;;;;;;;;;2060742;28;20030;-66
2024/01/13 00:10:30;;;;;;;4.03;1.50;;;;;;;;;;2061621;28;20030;-66
2024/01/13 00:11:48;;;;;;;2.40;1.33;;;;;;;;;;2069717;23;20041;-66
2024/01/13 00:13:08;;;;;;;1.65;1.13;;;;;;;;;;2099329;28;20441;-66
2024/01/13 00:14:27;;;;;;;1.42;1.30;;;;;;;;;;2078068;28;20034;-66
2024/01/13 00:16:56;;;;;;;1.90;1.10;;;;;;;;;;2099378;28;20043;-65
2024/01/13 00:18:17;;;;;;;3.50;1.10;;;;;;;;;;2100489;28;20036;-65
2024/01/13 00:19:36;;;;;;;1.52;1.10;;;;;;;;;;2098138;28;20118;-65
2024/01/13 00:20:55;;;;;;;2.25;1.35;;;;;;;;;;2114897;23;20479;-65
2024/01/13 00:22:14;;;;;;;1.30;1.17;;;;;;;;;;2058714;28;20038;-65
2024/01/13 00:23:33;;;;;;;1.45;1.10;;;;;;;;;;2049776;28;20118;-65
2024/01/13 00:24:52;;;;;;;1.33;1.23;;;;;;;;;;2067621;22;20383;-66
2024/01/13 00:26:11;;;;;;;1.20;1.10;;;;;;;;;;2081793;28;20068;-65
2024/01/13 00:27:30;;;;;;;2.22;1.20;;;;;;;;;;2075114;28;20061;-65
2024/01/13 00:28:49;;;;;;;3.45;1.35;;;;;;;;;;2074058;28;20029;-66
2024/01/13 00:30:09;;;;;;;1.80;1.00;;;;;;;;;;2104222;23;20063;-66
2024/01/13 00:31:28;;;;;;;3.03;1.20;;;;;;;;;;2097731;28;20036;-67
2024/01/13 00:32:46;;;;;;;2.85;1.30;;;;;;;;;;2096238;28;20029;-66
2024/01/13 00:34:05;;;;;;;1.65;1.50;;;;;;;;;;2098202;22;20447;-65
2024/01/13 00:35:24;;;;;;;1.20;0.95;;;;;;;;;;2089111;28;20032;-65
2024/01/13 00:36:43;;;;;;;2.92;1.50;;;;;;;;;;2091822;28;20025;-64
2024/01/13 00:39:07;;;;;;;1.30;1.20;;;;;;;;;;2105149;28;20118;-65
2024/01/13 00:40:26;;;;;;;1.20;1.08;;;;;;;;;;2109569;28;20027;-66
2024/01/13 00:41:45;;;;;;;3.42;1.30;;;;;;;;;;2112143;28;20032;-65
2024/01/13 00:43:04;;;;;;;5.00;1.20;;;;;;;;;;2107110;22;20363;-65
2024/01/13 00:44:23;;;;;;;1.15;1.05;;;;;;;;;;2086789;28;20033;-65
2024/01/13 00:45:42;;;;;;;2.28;0.98;;;;;;;;;;2087656;28;20032;-65
2024/01/13 00:47:01;;;;;;;5.15;1.55;;;;;;;;;;2135353;23;20021;-65
2024/01/13 00:48:23;;;;;;;3.97;1.40;;;;;;;;;;2082606;28;20686;-65
2024/01/13 00:49:42;;;;;;;3.40;1.60;;;;;;;;;;2083215;28;20594;-65
2024/01/13 00:51:01;;;;;;;1.52;1.40;;;;;;;;;;2082210;28;20052;-64
2024/01/13 00:52:23;;;;;;;1.27;1.08;;;;;;;;;;2085526;28;20056;-65
2024/01/13 00:53:43;;;;;;;1.38;1.05;;;;;;;;;;2094180;28;20036;-66
2024/01/13 00:55:01;;;;;;;1.80;0.90;;;;;;;;;;2095287;28;20032;-65
2024/01/13 00:56:20;;;;;;;2.00;0.80;;;;;;;;;;2137133;22;20065;-66
2024/01/13 00:57:39;;;;;;;3.95;1.35;;;;;;;;;;2060436;28;20042;-65
2024/01/13 00:58:58;;;;;;;1.48;0.90;;;;;;;;;;2066166;28;20074;-66
2024/01/13 01:00:17;;;;;;;1.55;0.98;;;;;;;;;;2121096;23;20057;-64
2024/01/13 01:01:37;;;;;;;0.98;0.90;;;;;;;;;;2066813;28;20481;-64
2024/01/13 01:02:56;;;;;;;2.85;1.30;;;;;;;;;;2066940;28;20116;-65
2024/01/13 01:04:15;;;;;;;1.42;0.98;;;;;;;;;;2067799;28;20490;-64
2024/01/13 01:05:34;;;;;;;2.58;1.20;;;;;;;;;;2105422;23;20183;-64
2024/01/13 01:06:54;;;;;;;2.25;1.00;;;;;;;;;;2109669;28;20031;-64
2024/01/13 01:08:12;;;;;;;2.33;0.98;;;;;;;;;;2100992;28;20076;-64
2024/01/13 01:09:31;;;;;;;4.18;1.00;;;;;;;;;;2144455;22;22451;-64
2024/01/13 01:10:50;;;;;;;1.05;1.00;;;;;;;;;;2062789;28;20045;-64
2024/01/13 01:12:10;;;;;;;1.30;0.73;;;;;;;;;;2062033;28;20026;-65
2024/01/13 01:14:35;;;;;;;2.08;1.02;;;;;;;;;;2064152;28;20047;-65
2024/01/13 01:15:54;;;;;;;1.05;0.65;;;;;;;;;;2068021;28;20084;-64
2024/01/13 01:17:14;;;;;;;0.80;0.80;;;;;;;;;;2067920;28;20045;-64
2024/01/13 01:18:33;;;;;;;3.80;0.93;;;;;;;;;;2130182;23;20049;-66
2024/01/13 01:19:52;;;;;;;2.50;1.05;;;;;;;;;;2082902;28;20556;-66
2024/01/13 01:21:12;;;;;;;2.72;0.93;;;;;;;;;;2083808;28;20037;-66
2024/01/13 01:22:31;;;;;;;0.98;0.73;;;;;;;;;;2132263;22;20025;-64
2024/01/13 01:23:50;;;;;;;2.03;0.93;;;;;;;;;;2082308;28;20120;-65
2024/01/13 01:25:09;;;;;;;3.95;1.30;;;;;;;;;;2082378;28;20021;-64
2024/01/13 01:26:28;;;;;;;1.35;0.98;;;;;;;;;;2082083;28;20037;-64
2024/01/13 01:27:47;;;;;;;3.17;0.80;;;;;;;;;;2096598;22;20061;-64
2024/01/13 01:29:06;;;;;;;1.55;1.00;;;;;;;;;;2092709;28;20036;-65
2024/01/13 01:30:25;;;;;;;4.53;0.90;;;;;;;;;;2092221;28;20029;-64
2024/01/13 01:31:44;;;;;;;1.77;1.27;;;;;;;;;;2096914;22;20127;-66
2024/01/13 01:33:03;;;;;;;2.90;1.00;;;;;;;;;;2100388;28;21045;-66
2024/01/13 01:34:22;;;;;;;2.05;0.85;;;;;;;;;;2059266;28;20026;-65
2024/01/13 01:36:48;;;;;;;2.78;0.85;;;;;;;;;;2065748;28;20445;-64
2024/01/13 01:38:07;;;;;;;6.93;0.93;;;;;;;;;;2078248;28;20401;-65
2024/01/13 01:39:26;;;;;;;2.05;0.68;;;;;;;;;;2065287;28;20446;-66
2024/01/13 01:40:52;;;;;;;2.30;0.77;;;;;;;;;;2129951;22;20058;-65
2024/01/13 01:42:11;;;;;;;1.80;0.98;;;;;;;;;;2062096;28;20043;-67
2024/01/13 01:43:30;;;;;;;1.27;0.75;;;;;;;;;;2058556;28;20038;-66
2024/01/13 01:44:49;;;;;;;1.27;0.90;;;;;;;;;;2087533;23;20035;-66
2024/01/13 01:46:10;;;;;;;2.22;0.80;;;;;;;;;;2059083;28;20531;-66
2024/01/13 01:47:31;;;;;;;2.00;1.13;;;;;;;;;;2068935;28;20045;-66
2024/01/13 01:49:56;;;;;;;1.60;0.90;;;;;;;;;;2119493;22;20569;-64
2024/01/13 01:51:15;;;;;;;3.55;1.00;;;;;;;;;;2055775;28;20034;-65
2024/01/13 01:52:35;;;;;;;1.23;0.75;;;;;;;;;;2063576;28;20022;-65
2024/01/13 01:53:55;;;;;;;1.10;0.77;;;;;;;;;;2078536;22;20045;-66
2024/01/13 01:55:14;;;;;;;3.00;1.10;;;;;;;;;;2075615;28;20032;-65
2024/01/13 01:56:36;;;;;;;1.83;1.10;;;;;;;;;;2070054;28;20026;-64
2024/01/13 01:58:59;;;;;;;1.63;0.82;;;;;;;;;;2067050;28;20050;-66
2024/01/13 02:00:18;;;;;;;1.13;1.02;;;;;;;;;;2071847;28;20037;-67
2024/01/13 02:01:37;;;;;;;1.42;0.90;;;;;;;;;;2069620;28;20517;-67
2024/01/13 02:02:57;;;;;;;4.15;0.98;;;;;;;;;;2075669;22;20066;-67
2024/01/13 02:04:15;;;;;;;2.25;1.02;;;;;;;;;;2061053;28;20042;-67
2024/01/13 02:05:34;;;;;;;4.38;0.93;;;;;;;;;;2060222;28;20038;-67
2024/01/13 02:06:53;;;;;;;3.45;1.00;;;;;;;;;;2108538;23;20030;-67
2024/01/13 02:08:13;;;;;;;2.17;0.82;;;;;;;;;;2071392;28;20141;-66
2024/01/13 02:09:33;;;;;;;4.63;1.23;;;;;;;;;;2065338;28;20477;-67
2024/01/13 02:10:52;;;;;;;3.17;1.00;;;;;;;;;;2070437;28;20108;-67
2024/01/13 02:12:07;;;;;;;3.90;1.00;;;;;;;;;;2119786;23;20118;-65
2024/01/13 02:13:26;;;;;;;4.97;1.25;;;;;;;;;;2062754;28;20043;-64
2024/01/13 02:14:45;;;;;;;3.40;1.10;;;;;;;;;;2067813;28;20027;-65
2024/01/13 02:16:06;;;;;;;1.08;0.82;;;;;;;;;;2119794;22;20445;-65
2024/01/13 02:17:25;;;;;;;3.58;1.00;;;;;;;;;;2076208;28;20038;-65
2024/01/13 02:18:44;;;;;;;1.75;0.80;;;;;;;;;;2069349;27;20034;-65
2024/01/13 02:21:13;;;;;;;1.65;1.10;;;;;;;;;;2063811;26;20055;-67
2024/01/13 02:22:32;;;;;;;1.33;0.90;;;;;;;;;;2048486;28;20035;-68
2024/01/13 02:23:51;;;;;;;2.53;0.95;;;;;;;;;;2047869;28;20479;-67
2024/01/13 02:25:10;;;;;;;2.17;0.73;;;;;;;;;;2123441;23;20052;-67
2024/01/13 02:26:32;;;;;;;1.67;0.90;;;;;;;;;;2100396;28;20392;-66
2024/01/13 02:27:51;;;;;;;2.92;1.00;;;;;;;;;;2099671;28;20028;-67
2024/01/13 02:29:10;;;;;;;3.42;1.10;;;;;;;;;;2158383;22;20107;-67
2024/01/13 02:30:29;;;;;;;2.58;1.02;;;;;;;;;;2107141;28;20036;-66
2024/01/13 02:31:48;;;;;;;1.48;0.68;;;;;;;;;;2099342;28;20028;-66
2024/01/13 02:33:07;;;;;;;2.83;0.80;;;;;;;;;;2106103;28;20544;-67
2024/01/13 02:34:18;;;;;;;3.40;0.50;;;;;;;;;;2143978;22;20057;-65
2024/01/13 02:35:37;;;;;;;1.55;0.60;;;;;;;;;;2084592;28;20034;-65
2024/01/13 02:36:55;;;;;;;3.08;0.93;;;;;;;;;;2079208;28;20166;-64
2024/01/13 02:38:17;;;;;;;1.30;0.60;;;;;;;;;;2128085;22;20061;-66
2024/01/13 02:39:36;;;;;;;2.22;1.38;;;;;;;;;;2075398;28;20042;-67
2024/01/13 02:40:56;;;;;;;2.17;0.90;;;;;;;;;;2072144;28;20615;-67
2024/01/13 02:43:18;;;;;;;1.33;0.68;;;;;;;;;;2090021;28;20057;-67
2024/01/13 02:44:37;;;;;;;2.13;0.80;;;;;;;;;;2094007;28;20032;-68
2024/01/13 02:45:56;;;;;;;4.22;0.93;;;;;;;;;;2095170;28;20580;-66
2024/01/13 02:47:15;;;;;;;1.05;0.60;;;;;;;;;;2138224;22;20062;-66
2024/01/13 02:48:38;;;;;;;2.90;0.90;;;;;;;;;;2068956;28;20030;-67
2024/01/13 02:49:57;;;;;;;;;;;;;;;;;;2064789;28;20070;-66
2024/01/13 02:52:19;;;;;;;2.70;1.05;;;;;;;;;;2070166;28;20354;-64
2024/01/13 02:53:39;;;;;;;2.28;0.88;;;;;;;;;;2069221;28;20042;-64
2024/01/13 02:54:57;;;;;;;1.77;0.88;;;;;;;;;;2071596;28;20030;-65
2024/01/13 02:56:17;;;;;;;2.50;1.10;;;;;;;;;;2147897;23;20048;-66
2024/01/13 02:57:36;;;;;;;1.67;0.98;;;;;;;;;;2109188;28;20036;-69
2024/01/13 02:58:55;;;;;;;2.60;1.00;;;;;;;;;;2108703;28;20036;-67
2024/01/13 03:00:16;;;;;;;4.43;0.85;;;;;;;;;;2117685;22;20027;-66
2024/01/13 03:01:35;;;;;;;1.88;0.82;;;;;;;;;;2080681;28;20572;-67
2024/01/13 03:02:54;;;;;;;1.55;0.90;;;;;;;;;;2082021;28;20060;-67
2024/01/13 03:04:13;;;;;;;2.85;0.68;;;;;;;;;;2083724;28;20060;-67
2024/01/13 03:05:23;;;;;;;1.67;1.05;;;;;;;;;;2126071;22;20107;-64
2024/01/13 03:06:42;;;;;;;2.78;0.73;;;;;;;;;;2056697;28;20035;-64
2024/01/13 03:08:01;;;;;;;5.45;0.70;;;;;;;;;;2058267;28;20652;-64
2024/01/13 03:10:23;;;;;;;2.65;1.00;;;;;;;;;;2063283;28;20372;-63
2024/01/13 03:11:42;;;;;;;0.80;0.80;;;;;;;;;;2069045;28;20126;-63
2024/01/13 03:13:01;;;;;;;2.25;1.42;;;;;;;;;;2069926;28;20035;-64
2024/01/13 03:14:19;;;;;;;2.17;0.90;;;;;;;;;;2074451;23;20470;-66
2024/01/13 03:15:38;;;;;;;2.33;0.88;;;;;;;;;;2068477;28;20030;-65
2024/01/13 03:16:57;;;;;;;1.90;1.10;;;;;;;;;;2070197;28;20034;-66
2024/01/13 03:18:16;;;;;;;1.25;0.63;;;;;;;;;;2081251;23;21306;-65
2024/01/13 03:19:36;;;;;;;2.45;0.70;;;;;;;;;;2090816;28;20104;-65
2024/01/13 03:20:54;;;;;;;4.90;0.90;;;;;;;;;;2090982;28;20032;-68
2024/01/13 03:23:18;;;;;;;1.65;1.00;;;;;;;;;;2096461;28;20578;-65
2024/01/13 03:24:37;;;;;;;5.13;0.80;;;;;;;;;;2103237;28;20429;-65
2024/01/13 03:25:56;;;;;;;2.80;1.00;;;;;;;;;;2093967;28;20028;-65
2024/01/13 03:27:15;;;;;;;2.63;0.77;;;;;;;;;;2131232;22;20053;-66
2024/01/13 03:28:35;;;;;;;1.63;0.98;;;;;;;;;;2078058;28;20038;-67
2024/01/13 03:29:53;;;;;;;3.63;0.63;;;;;;;;;;2071580;28;20037;-66
2024/01/13 03:31:13;;;;;;;1.67;0.70;;;;;;;;;;2135303;23;20530;-66
2024/01/13 03:32:32;;;;;;;4.93;0.90;;;;;;;;;;2098714;28;20041;-66
2024/01/13 03:33:51;;;;;;;3.15;0.60;;;;;;;;;;2100054;28;20028;-67
2024/01/13 03:35:10;;;;;;;1.35;0.75;;;;;;;;;;2092622;28;20029;-66
2024/01/13 03:36:30;;;;;;;3.08;1.15;;;;;;;;;;2085997;23;20072;-66
2024/01/13 03:37:49;;;;;;;4.13;0.60;;;;;;;;;;2093930;28;20355;-66
2024/01/13 03:39:09;;;;;;;5.57;0.70;;;;;;;;;;2100597;28;20496;-66
2024/01/13 03:40:28;;;;;;;4.35;1.30;;;;;;;;;;2124913;22;21077;-66
2024/01/13 03:41:49;;;;;;;7.68;1.33;;;;;;;;;;2058205;28;20035;-66
2024/01/13 03:43:08;;;;;;;1.98;0.70;;;;;;;;;;2062144;28;20038;-65
2024/01/13 03:45:30;;;;;;;3.75;0.98;;;;;;;;;;2082808;27;19929;-65
2024/01/13 03:46:50;;;;;;;1.42;0.80;;;;;;;;;;2075543;28;20042;-66
2024/01/13 03:48:09;;;;;;;4.53;1.00;;;;;;;;;;2081171;27;20040;-65
2024/01/13 03:49:28;;;;;;;2.08;1.08;;;;;;;;;;2081269;23;20898;-64
2024/01/13 03:50:47;;;;;;;5.55;0.88;;;;;;;;;;2060477;28;20038;-64
2024/01/13 03:52:06;;;;;;;1.77;0.90;;;;;;;;;;2063372;28;20101;-64
2024/01/13 03:53:25;;;;;;;0.90;0.73;;;;;;;;;;2074251;22;20031;-65
2024/01/13 03:54:47;;;;;;;2.08;0.73;;;;;;;;;;2059972;28;20549;-64
2024/01/13 03:56:08;;;;;;;4.60;0.77;;;;;;;;;;2065866;28;20030;-64
2024/01/13 03:57:27;;;;;;;1.77;0.88;;;;;;;;;;2065537;28;20030;-64
2024/01/13 03:58:38;;;;;;;3.42;0.68;;;;;;;;;;2134299;22;20060;-64
2024/01/13 03:59:58;;;;;;;3.60;1.05;;;;;;;;;;2086413;28;20032;-64
2024/01/13 04:01:17;;;;;;;3.47;0.70;;;;;;;;;;2079005;28;20026;-64
2024/01/13 04:02:36;;;;;;;2.30;0.82;;;;;;;;;;2096374;23;20045;-65
2024/01/13 04:03:55;;;;;;;3.60;1.15;;;;;;;;;;2094667;28;20111;-66
2024/01/13 04:05:14;;;;;;;1.38;0.80;;;;;;;;;;2098893;28;20024;-66
2024/01/13 04:07:40;;;;;;;6.05;1.10;;;;;;;;;;2072196;28;19924;-66
2024/01/13 04:08:59;;;;;;;1.50;0.82;;;;;;;;;;2075206;28;20038;-66
2024/01/13 04:10:18;;;;;;;0.88;0.57;;;;;;;;;;2065118;28;20556;-65
2024/01/13 04:11:37;;;;;;;6.18;1.25;;;;;;;;;;2111967;23;20055;-66
2024/01/13 04:12:56;;;;;;;2.35;0.60;;;;;;;;;;2057013;28;20042;-65
2024/01/13 04:14:14;;;;;;;4.65;0.93;;;;;;;;;;2061461;28;20266;-65
2024/01/13 04:15:33;;;;;;;1.95;0.77;;;;;;;;;;2114704;23;20039;-65
2024/01/13 04:16:52;;;;;;;1.30;0.73;;;;;;;;;;2052130;28;20067;-66
2024/01/13 04:18:11;;;;;;;1.58;0.68;;;;;;;;;;2053143;28;20129;-66
2024/01/13 04:19:30;;;;;;;1.52;0.70;;;;;;;;;;2054899;28;20042;-65
2024/01/13 04:20:49;;;;;;;3.53;0.98;;;;;;;;;;2077594;23;20057;-63
2024/01/13 04:22:08;;;;;;;2.47;1.02;;;;;;;;;;2081656;27;20033;-63
2024/01/13 04:23:30;;;;;;;1.02;0.60;;;;;;;;;;2068404;28;20745;-63
2024/01/13 04:24:49;;;;;;;1.05;0.60;;;;;;;;;;2102738;23;20134;-63
2024/01/13 04:26:08;;;;;;;8.82;1.05;;;;;;;;;;2097320;28;20040;-64
2024/01/13 04:27:27;;;;;;;3.85;1.02;;;;;;;;;;2104842;28;20036;-64
2024/01/13 04:29:50;;;;;;;1.23;0.70;;;;;;;;;;2074999;28;19921;-66
2024/01/13 04:31:09;;;;;;;4.22;1.83;;;;;;;;;;2078359;28;20026;-66
2024/01/13 04:32:28;;;;;;;6.10;2.55;;;;;;;;;;2078781;28;20033;-65
2024/01/13 04:33:47;;;;;;;2.28;0.60;;;;;;;;;;2131236;23;20042;-66
2024/01/13 04:35:06;;;;;;;2.92;0.68;;;;;;;;;;2061332;28;20034;-65
2024/01/13 04:36:25;;;;;;;2.75;1.08;;;;;;;;;;2069168;28;20100;-66
2024/01/13 04:38:49;;;;;;;1.50;0.80;;;;;;;;;;2066398;28;19925;-66
2024/01/13 04:40:09;;;;;;;1.98;0.90;;;;;;;;;;2067961;28;20034;-67
2024/01/13 04:41:28;;;;;;;2.95;0.88;;;;;;;;;;2069640;28;20034;-66
2024/01/13 04:42:46;;;;;;;2.42;0.73;;;;;;;;;;2089186;23;20087;-64
2024/01/13 04:44:06;;;;;;;3.60;0.88;;;;;;;;;;2090940;28;20056;-64
2024/01/13 04:45:24;;;;;;;3.22;0.80;;;;;;;;;;2089202;28;20029;-63
2024/01/13 04:46:44;;;;;;;2.35;0.80;;;;;;;;;;2096324;23;20033;-66
2024/01/13 04:48:03;;;;;;;1.60;0.95;;;;;;;;;;2085507;28;20057;-66
2024/01/13 04:49:22;;;;;;;4.47;0.90;;;;;;;;;;2092005;28;20447;-65
2024/01/13 04:50:41;;;;;;;1.75;0.70;;;;;;;;;;2092450;28;20037;-66
2024/01/13 04:51:52;;;;;;;1.42;0.73;;;;;;;;;;2157377;22;20079;-65
2024/01/13 04:53:11;;;;;;;4.50;1.08;;;;;;;;;;2094306;28;20509;-64
2024/01/13 04:54:30;;;;;;;3.45;0.77;;;;;;;;;;2091686;28;20040;-64
2024/01/13 04:55:50;;;;;;;1.70;0.63;;;;;;;;;;2136144;22;20683;-65
2024/01/13 04:57:09;;;;;;;1.48;0.98;;;;;;;;;;2059965;28;20473;-68
2024/01/13 04:58:27;;;;;;;2.55;0.60;;;;;;;;;;2059684;28;20054;-65
2024/01/13 05:00:56;;;;;;;4.68;1.20;;;;;;;;;;2090134;28;20568;-66
2024/01/13 05:02:15;;;;;;;2.33;0.70;;;;;;;;;;2084037;28;20119;-66
2024/01/13 05:03:34;;;;;;;3.97;1.02;;;;;;;;;;2095588;28;20041;-66
2024/01/13 05:04:53;;;;;;;6.22;0.95;;;;;;;;;;2110566;22;20052;-64
2024/01/13 05:06:15;;;;;;;3.00;0.93;;;;;;;;;;2092247;28;20044;-63
2024/01/13 05:07:36;;;;;;;2.72;1.00;;;;;;;;;;2088860;28;20119;-63
2024/01/13 05:08:55;;;;;;;3.47;0.95;;;;;;;;;;2146483;22;20111;-64
2024/01/13 05:10:14;;;;;;;1.55;0.80;;;;;;;;;;2076921;28;20037;-63
2024/01/13 05:11:33;;;;;;;1.73;0.60;;;;;;;;;;2076825;28;20033;-63
2024/01/13 05:12:52;;;;;;;2.03;0.80;;;;;;;;;;2074858;28;20026;-63
2024/01/13 05:14:04;;;;;;;2.30;0.88;;;;;;;;;;2115294;23;20339;-64
2024/01/13 05:15:23;;;;;;;3.63;0.70;;;;;;;;;;2063918;28;20042;-69
2024/01/13 05:16:42;;;;;;;2.60;0.60;;;;;;;;;;2064711;28;20062;-64
2024/01/13 05:18:01;;;;;;;1.58;0.73;;;;;;;;;;2111207;23;20058;-64
2024/01/13 05:19:20;;;;;;;2.33;0.80;;;;;;;;;;2070289;28;20030;-64
2024/01/13 05:20:39;;;;;;;3.90;0.82;;;;;;;;;;2069104;28;20033;-64
2024/01/13 05:23:07;;;;;;;2.60;0.70;;;;;;;;;;2060331;28;20452;-64
2024/01/13 05:24:26;;;;;;;1.90;0.50;;;;;;;;;;2062644;28;20034;-64
2024/01/13 05:25:45;;;;;;;2.25;0.80;;;;;;;;;;2064174;28;20038;-64
2024/01/13 05:27:04;;;;;;;4.22;0.77;;;;;;;;;;2085965;22;20064;-65
2024/01/13 05:28:24;;;;;;;3.13;0.70;;;;;;;;;;2072596;28;20039;-65
2024/01/13 05:29:44;;;;;;;3.67;0.60;;;;;;;;;;2061825;28;20030;-64
2024/01/13 05:31:03;;;;;;;2.58;0.50;;;;;;;;;;2070477;23;20113;-65
2024/01/13 05:32:22;;;;;;;2.35;0.60;;;;;;;;;;2078657;28;20042;-65
2024/01/13 05:33:41;;;;;;;2.08;0.50;;;;;;;;;;2077523;28;20034;-65
2024/01/13 05:35:00;;;;;;;5.50;1.10;;;;;;;;;;2076178;28;20417;-65
2024/01/13 05:36:21;;;;;;;3.90;1.23;;;;;;;;;;2107676;23;20704;-64
2024/01/13 05:37:40;;;;;;;3.42;0.73;;;;;;;;;;2108654;28;20040;-63
2024/01/13 05:38:59;;;;;;;3.65;0.85;;;;;;;;;;2102274;28;20111;-64
2024/01/13 05:40:19;;;;;;;2.75;1.13;;;;;;;;;;2130893;22;20065;-64
2024/01/13 05:41:39;;;;;;;3.22;0.80;;;;;;;;;;2064971;28;20038;-64
2024/01/13 05:42:57;;;;;;;6.88;1.70;;;;;;;;;;2070008;28;20059;-63
2024/01/13 05:44:17;;;;;;;4.00;0.73;;;;;;;;;;2123159;23;20026;-65
2024/01/13 05:45:36;;;;;;;3.13;1.20;;;;;;;;;;2063521;28;20489;-64
2024/01/13 05:46:55;;;;;;;1.95;0.70;;;;;;;;;;2059329;28;20042;-64
2024/01/13 05:48:14;;;;;;;2.90;0.80;;;;;;;;;;2062466;28;20117;-64
2024/01/13 05:49:32;;;;;;;3.05;0.88;;;;;;;;;;2179459;23;20067;-63
2024/01/13 05:50:52;;;;;;;3.97;0.70;;;;;;;;;;2105406;28;20610;-64
2024/01/13 05:52:11;;;;;;;6.60;1.20;;;;;;;;;;2110589;28;20028;-63
2024/01/13 05:53:30;;;;;;;2.58;0.65;;;;;;;;;;2113770;22;20473;-66
2024/01/13 05:54:49;;;;;;;7.55;1.42;;;;;;;;;;2094185;28;20032;-66
2024/01/13 05:56:09;;;;;;;2.65;0.63;;;;;;;;;;2091755;28;20607;-65
2024/01/13 05:58:39;;;;;;;3.97;1.20;;;;;;;;;;2082855;28;20075;-66
2024/01/13 05:59:58;;;;;;;3.22;0.77;;;;;;;;;;2086048;28;20496;-66
2024/01/13 06:01:17;;;;;;;6.35;1.08;;;;;;;;;;2093227;28;20040;-65
2024/01/13 06:02:36;;;;;;;3.40;0.80;;;;;;;;;;2082887;22;20060;-63
2024/01/13 06:03:55;;;;;;;1.75;0.68;;;;;;;;;;2054732;28;20110;-66
2024/01/13 06:05:15;;;;;;;1.95;0.82;;;;;;;;;;2057175;28;20031;-64
2024/01/13 06:06:35;;;;;;;3.50;0.65;;;;;;;;;;2070175;22;20026;-65
2024/01/13 06:07:54;;;;;;;2.88;0.88;;;;;;;;;;2079676;28;20497;-64
2024/01/13 06:09:13;;;;;;;3.85;0.88;;;;;;;;;;2080297;28;20080;-65
2024/01/13 06:10:34;;;;;;;5.57;0.90;;;;;;;;;;2080263;28;20508;-64
2024/01/13 06:11:53;;;;;;;1.40;0.70;;;;;;;;;;2103269;28;20055;-66
2024/01/13 06:13:12;;;;;;;5.13;0.90;;;;;;;;;;2110508;28;20024;-66
2024/01/13 06:14:31;;;;;;;6.22;0.90;;;;;;;;;;2107875;28;20045;-65
2024/01/13 06:16:04;;;;;;;8.27;1.13;;;;;;;;;;2120396;22;20061;-85
2024/01/13 06:17:37;;;;;;;;;;;;;;;;;;;;;
2024/01/13 06:19:02;;;;;;;4.15;1.42;;;;;;;;;;2091236;27;20065;-86
2024/01/13 06:22:24;;;;;;;;;;;;;;;;;;;;;
2024/01/13 06:23:47;;;;;;;4.18;1.10;;;;;;;;;;2095998;27;20033;-85
2024/01/13 06:25:15;;;;;;;7.15;1.00;;;;;;;;;;2085080;27;20033;-85
2024/01/13 06:26:46;;;;;;;3.75;1.13;;;;;;;;;;2081629;28;20031;-87
2024/01/13 06:28:16;;;;;;;2.78;1.00;;;;;;;;;;2077866;28;20065;-85
2024/01/13 06:29:57;;;;;;;4.05;0.88;;;;;;;;;;2078899;28;20029;-87
2024/01/13 06:31:43;;;;;;;2.65;0.90;;;;;;;;;;2083824;28;20396;-86
2024/01/13 06:35:00;;;;;;;4.40;0.88;;;;;;;;;;2088074;27;20037;-85
2024/01/13 06:36:37;;;;;;;4.20;1.23;;;;;;;;;;2091008;27;20037;-85
2024/01/13 06:37:59;;;;;;;3.28;0.70;;;;;;;;;;2082622;27;20049;-85
2024/01/13 06:39:43;;;;;;;7.15;1.02;;;;;;;;;;2082769;27;20032;-86
2024/01/13 06:41:08;;;;;;;3.38;0.98;;;;;;;;;;2083754;27;20035;-86
2024/01/13 06:42:33;;;;;;;6.47;0.75;;;;;;;;;;2080901;28;20120;-86
2024/01/13 06:43:56;;;;;;;5.18;1.27;;;;;;;;;;2108263;27;20035;-83
2024/01/13 06:45:17;;;;;;;4.07;0.77;;;;;;;;;;2095471;27;20129;-87
2024/01/13 06:46:42;;;;;;;3.88;0.80;;;;;;;;;;2080397;27;20031;-85
2024/01/13 06:48:24;;;;;;;3.53;0.90;;;;;;;;;;2094987;27;20045;-85
2024/01/13 06:49:52;;;;;;;2.60;0.80;;;;;;;;;;2086767;27;20030;-85
2024/01/13 06:51:14;;;;;;;3.88;0.93;;;;;;;;;;2089162;27;20030;-85
2024/01/13 06:52:43;;;;;;;4.68;0.82;;;;;;;;;;2085712;27;20025;-87
2024/01/13 06:55:59;;;;;;;3.50;0.80;;;;;;;;;;2076300;28;20023;-88
2024/01/13 06:57:40;;;;;;;2.63;0.90;;;;;;;;;;2099114;28;20036;-88
2024/01/13 06:59:00;;;;;;;5.10;1.45;;;;;;;;;;2105361;28;20036;-85
2024/01/13 07:00:19;;;;;;;2.58;0.90;;;;;;;;;;2099053;28;20020;-84
2024/01/13 07:01:41;;;;;;;4.53;1.33;;;;;;;;;;2077189;27;20069;-84
2024/01/13 07:03:01;;;;;;;2.03;0.82;;;;;;;;;;2083492;27;20035;-84
2024/01/13 07:04:31;;;;;;;4.97;0.98;;;;;;;;;;2086038;27;20035;-85
2024/01/13 07:05:50;;;;;;;3.55;0.82;;;;;;;;;;2086366;27;20078;-84
2024/01/13 07:07:16;;;;;;;3.30;0.85;;;;;;;;;;2083458;27;20094;-85
2024/01/13 07:09:14;;;;;;;;;;;;;;;;;;;;;
2024/01/13 07:10:59;;;;;;;6.30;1.25;;;;;;;;;;2088433;27;20037;-88
2024/01/13 07:12:27;;;;;;;2.67;0.90;;;;;;;;;;2087675;27;20038;-86
2024/01/13 07:13:49;;;;;;;3.85;0.93;;;;;;;;;;2091413;27;20119;-86
2024/01/13 07:15:22;;;;;;;2.78;1.13;;;;;;;;;;2088666;27;20029;-86
2024/01/13 07:16:44;;;;;;;2.22;1.00;;;;;;;;;;2087371;27;20035;-87
2024/01/13 07:18:15;;;;;;;1.45;0.80;;;;;;;;;;2088313;27;20032;-86
2024/01/13 07:19:39;;;;;;;2.72;0.80;;;;;;;;;;2087969;27;20035;-85
2024/01/13 07:21:01;;;;;;;7.75;1.77;;;;;;;;;;2086090;27;20034;-86
2024/01/13 07:22:27;;;;;;;5.63;0.80;;;;;;;;;;2080693;27;20993;-85
2024/01/13 07:23:52;;;;;;;2.97;0.70;;;;;;;;;;2091097;27;20519;-85
2024/01/13 07:25:11;;;;;;;5.53;1.30;;;;;;;;;;2090241;27;20121;-85
2024/01/13 07:26:31;;;;;;;1.58;0.90;;;;;;;;;;2081646;27;20031;-86
2024/01/13 07:27:54;;;;;;;6.20;0.95;;;;;;;;;;2087127;27;20036;-85
2024/01/13 07:29:13;;;;;;;2.20;0.85;;;;;;;;;;2089778;27;20033;-85
2024/01/13 07:30:36;;;;;;;1.58;1.00;;;;;;;;;;2085467;27;20063;-86
2024/01/13 07:31:56;;;;;;;2.47;0.80;;;;;;;;;;2080392;27;20644;-85
2024/01/13 07:33:38;;;;;;;2.05;1.05;;;;;;;;;;2080052;28;20046;-86
2024/01/13 07:35:00;;;;;;;5.15;1.25;;;;;;;;;;2083305;28;20026;-86
2024/01/13 07:36:36;;;;;;;5.78;1.45;;;;;;;;;;2089585;27;20027;-86
2024/01/13 07:38:05;;;;;;;4.40;1.20;;;;;;;;;;2084685;27;20027;-86
2024/01/13 07:39:27;;;;;;;5.03;1.02;;;;;;;;;;2087791;27;20038;-86
2024/01/13 07:41:19;;;;;;;;;;;;;;;;;;;;;
2024/01/13 07:44:57;;;;;;;4.28;1.55;;;;;;;;;;2086925;27;20065;-84
2024/01/13 07:46:25;;;;;;;5.20;1.23;;;;;;;;;;2096757;27;20427;-85
2024/01/13 07:48:00;;;;;;;4.28;1.33;;;;;;;;;;2092226;27;20431;-85
2024/01/13 07:49:21;;;;;;;7.20;1.40;;;;;;;;;;2087625;27;20108;-85
2024/01/13 07:50:52;;;;;;;4.50;1.38;;;;;;;;;;2073315;28;20502;-84
2024/01/13 07:54:26;;;;;;;2.25;1.02;;;;;;;;;;2053047;28;20062;-84
2024/01/13 07:55:49;;;;;;;3.97;1.50;;;;;;;;;;2082983;28;20061;-85
2024/01/13 07:57:14;;;;;;;6.93;1.40;;;;;;;;;;2079328;28;20025;-86
2024/01/13 07:58:48;;;;;;;;;;;;;;;;;;;;;
2024/01/13 08:00:14;;;;;;;4.32;1.13;;;;;;;;;;2087220;27;20037;-88
2024/01/13 08:01:33;;;;;;;9.75;1.42;;;;;;;;;;2085758;27;20498;-86
2024/01/13 08:02:55;;;;;;;5.75;1.42;;;;;;;;;;2077286;28;20086;-85
2024/01/13 08:04:15;;;;;;;10.43;2.25;;;;;;;;;;2096069;27;20025;-84
2024/01/13 08:05:47;;;;;;;;;;;;;;;;;;;;;
2024/01/13 08:07:20;;;;;;;6.25;1.35;;;;;;;;;;2094686;27;20126;-85
2024/01/13 08:08:44;;;;;;;4.78;1.70;;;;;;;;;;2083058;28;20074;-89
2024/01/13 08:10:41;;;;;;;5.55;1.55;;;;;;;;;;2090472;27;20052;-85
2024/01/13 08:12:16;;;;;;;6.88;2.20;;;;;;;;;;2079098;28;20050;-88
2024/01/13 08:13:38;;;;;;;7.47;1.50;;;;;;;;;;2092530;27;20023;-84
2024/01/13 08:15:07;;;;;;;3.63;1.40;;;;;;;;;;2087798;27;20026;-84
2024/01/13 08:16:35;;;;;;;5.68;1.80;;;;;;;;;;2095827;27;20045;-85
2024/01/13 08:17:57;;;;;;;3.50;1.45;;;;;;;;;;2118603;27;20031;-84
2024/01/13 08:19:26;;;;;;;5.38;1.45;;;;;;;;;;2094975;27;20444;-85
2024/01/13 08:22:39;;;;;;;5.18;2.15;;;;;;;;;;2089450;27;20045;-84
2024/01/13 08:24:05;;;;;;;4.05;1.20;;;;;;;;;;2085005;27;20027;-85
2024/01/13 08:25:27;;;;;;;4.45;1.58;;;;;;;;;;2083105;27;20045;-86
2024/01/13 08:26:46;;;;;;;3.47;1.17;;;;;;;;;;2088247;27;20029;-85
2024/01/13 08:28:08;;;;;;;4.57;1.67;;;;;;;;;;2081142;27;20048;-86
2024/01/13 08:29:34;;;;;;;3.55;1.48;;;;;;;;;;2080687;28;20033;-85
2024/01/13 08:30:59;;;;;;;3.35;1.35;;;;;;;;;;2080316;27;20120;-84
2024/01/13 08:32:31;;;;;;;5.53;1.40;;;;;;;;;;2080714;28;20035;-85
2024/01/13 08:33:50;;;;;;;6.45;1.17;;;;;;;;;;2078567;28;20030;-85
2024/01/13 08:37:25;;;;;;;3.25;1.42;;;;;;;;;;2089485;27;20037;-86
2024/01/13 08:38:44;;;;;;;5.60;1.67;;;;;;;;;;2088184;27;20031;-85
2024/01/13 08:40:09;;;;;;;3.92;1.45;;;;;;;;;;2079526;28;20049;-87
2024/01/13 08:41:40;;;;;;;3.63;1.73;;;;;;;;;;2080265;28;20406;-89
2024/01/13 08:43:05;;;;;;;8.70;1.85;;;;;;;;;;2086432;27;20035;-86